createdAt,value
2024-04-15T00:00:22.676Z,97848.16
2024-04-15T00:05:27.919Z,97810.09
2024-04-15T00:10:33.059Z,97842.88
2024-04-15T00:15:40.881Z,97724.16
2024-04-15T00:20:46.028Z,97880.19
2024-04-15T00:25:51.170Z,97903.59
2024-04-15T00:31:00.464Z,97733.03
2024-04-15T00:36:06.040Z,97879.06
2024-04-15T00:41:11.218Z,97877.66
2024-04-15T00:46:19.631Z,97723.84
2024-04-15T00:51:26.258Z,97825.16
2024-04-15T00:56:31.618Z,97696.78
2024-04-15T01:01:40.216Z,97825.13
2024-04-15T01:06:46.385Z,97778.22
2024-04-15T01:11:51.593Z,97700.53
2024-04-15T01:16:59.411Z,97714.25
2024-04-15T01:22:07.893Z,97760.81
2024-04-15T01:27:16.774Z,97815.72
2024-04-15T01:32:22.292Z,97747.06
2024-04-15T01:37:27.425Z,97772.03
2024-04-15T01:42:35.233Z,97743.25
2024-04-15T01:47:41.989Z,97784.25
2024-04-15T01:52:47.934Z,97751.88
2024-04-15T01:57:55.877Z,97768.06
2024-04-15T02:03:01.148Z,97700.16
2024-04-15T02:08:06.689Z,97724.03
2024-04-15T02:13:14.787Z,97578.94
2024-04-15T02:18:20.351Z,97746.97
2024-04-15T02:23:25.642Z,97770.94
2024-04-15T02:28:33.464Z,97770.22
2024-04-15T02:33:38.755Z,97733.00
2024-04-15T02:38:44.327Z,97446.91
2024-04-15T02:43:52.079Z,97764.47
2024-04-15T02:48:57.400Z,97736.03
2024-04-15T02:54:02.543Z,97737.84
2024-04-15T02:59:10.304Z,97742.25
2024-04-15T03:04:15.542Z,97758.03
2024-04-15T03:09:22.408Z,97366.25
2024-04-15T03:14:30.234Z,97645.63
2024-04-15T03:19:35.385Z,97743.00
2024-04-15T03:24:40.563Z,97707.22
2024-04-15T03:29:48.555Z,97689.16
2024-04-15T03:34:53.658Z,97668.94
2024-04-15T03:39:58.912Z,97713.47
2024-04-15T03:45:07.375Z,97714.03
2024-04-15T03:50:12.505Z,97597.78
2024-04-15T03:55:17.873Z,97682.09
2024-04-15T04:00:25.802Z,97643.25
2024-04-15T04:05:30.951Z,97691.09
2024-04-15T04:10:36.815Z,97697.06
2024-04-15T04:15:45.792Z,97713.97
2024-04-15T04:20:50.972Z,97473.38
2024-04-15T04:25:56.144Z,97684.59
2024-04-15T04:31:07.095Z,97647.25
2024-04-15T04:36:12.731Z,97693.50
2024-04-15T04:41:18.141Z,97654.13
2024-04-15T04:46:27.129Z,97718.69
2024-04-15T04:51:32.730Z,97714.38
2024-04-15T04:56:38.112Z,97684.78
2024-04-15T05:01:51.441Z,97736.53
2024-04-15T05:06:58.715Z,97735.63
2024-04-15T05:12:03.942Z,97736.47
2024-04-15T05:17:11.996Z,97673.13
2024-04-15T05:22:17.358Z,97686.06
2024-04-15T05:27:22.544Z,97738.38
2024-04-15T05:32:30.702Z,97699.22
2024-04-15T05:37:36.060Z,97767.31
2024-04-15T05:42:43.561Z,97772.81
2024-04-15T05:47:51.480Z,97740.34
2024-04-15T05:52:56.729Z,97764.47
2024-04-15T05:58:01.944Z,97755.66
2024-04-15T06:03:09.988Z,97701.81
2024-04-15T06:08:15.236Z,97768.81
2024-04-15T06:13:20.667Z,97764.41
2024-04-15T06:18:28.743Z,97739.41
2024-04-15T06:23:33.901Z,97736.34
2024-04-15T06:28:39.064Z,97766.19
2024-04-15T06:33:46.882Z,97760.78
2024-04-15T06:38:52.021Z,97741.03
2024-04-15T06:43:57.359Z,97683.25
2024-04-15T06:49:05.160Z,97689.13
2024-04-15T06:54:10.918Z,97757.50
2024-04-15T06:59:16.070Z,97745.63
2024-04-15T07:04:23.912Z,97417.38
2024-04-15T07:09:29.139Z,97759.91
2024-04-15T07:14:34.316Z,97629.53
2024-04-15T07:19:42.119Z,97762.53
2024-04-15T07:24:47.639Z,97698.72
2024-04-15T07:29:52.869Z,97657.81
2024-04-15T07:35:00.776Z,97763.03
2024-04-15T07:40:06.708Z,97756.34
2024-04-15T07:45:12.129Z,97707.94
2024-04-15T07:50:20.049Z,97734.75
2024-04-15T07:55:25.402Z,97668.50
2024-04-15T08:00:30.893Z,97715.34
2024-04-15T08:05:38.775Z,97734.66
2024-04-15T08:10:44.049Z,97668.31
2024-04-15T08:15:54.343Z,97668.47
2024-04-15T08:21:02.327Z,97508.88
2024-04-15T08:26:07.805Z,97621.63
2024-04-15T08:31:18.465Z,97571.13
2024-04-15T08:36:26.285Z,97398.75
2024-04-15T08:41:33.051Z,97668.09
2024-04-15T08:46:44.988Z,97392.53
2024-04-15T08:51:54.924Z,97680.94
2024-04-15T08:57:05.024Z,97699.00
2024-04-15T09:02:10.353Z,97681.03
2024-04-15T09:07:18.509Z,97647.00
2024-04-15T09:12:23.849Z,97558.41
2024-04-15T09:17:29.107Z,97672.13
2024-04-15T09:22:38.207Z,97666.59
2024-04-15T09:27:44.157Z,97654.28
2024-04-15T09:32:50.043Z,97522.19
2024-04-15T09:37:58.832Z,97517.47
2024-04-15T09:43:05.688Z,97568.16
2024-04-15T09:48:16.526Z,97659.78
2024-04-15T09:53:34.227Z,97630.31
2024-04-15T09:58:41.179Z,97568.91
2024-04-15T10:03:50.360Z,97615.25
2024-04-15T10:08:59.240Z,97551.59
2024-04-15T10:14:05.022Z,97557.69
2024-04-15T10:19:12.528Z,97561.69
2024-04-15T10:24:20.687Z,97431.47
2024-04-15T10:29:29.275Z,97508.16
2024-04-15T10:34:34.861Z,97536.09
2024-04-15T10:39:47.574Z,97527.56
2024-04-15T10:44:56.181Z,97510.75
2024-04-15T10:50:01.492Z,97520.09
2024-04-15T10:55:11.128Z,97518.69
2024-04-15T11:00:17.971Z,97514.72
2024-04-15T11:05:24.389Z,97427.28
2024-04-15T11:10:32.799Z,97475.03
2024-04-15T11:15:40.403Z,97247.56
2024-04-15T11:20:45.728Z,97439.56
2024-04-15T11:25:54.324Z,97332.09
2024-04-15T11:31:01.755Z,97418.09
2024-04-15T11:36:07.677Z,97413.88
2024-04-15T11:41:15.598Z,97341.13
2024-04-15T11:46:22.415Z,97359.72
2024-04-15T11:51:27.910Z,97318.34
2024-04-15T11:56:36.335Z,97167.44
2024-04-15T12:01:41.816Z,97361.97
2024-04-15T12:06:47.304Z,97345.72
2024-04-15T12:11:55.166Z,97271.41
2024-04-15T12:17:00.796Z,97318.72
2024-04-15T12:22:06.073Z,97253.72
2024-04-15T12:27:13.921Z,97297.31
2024-04-15T12:32:25.200Z,97198.22
2024-04-15T12:37:30.473Z,97282.31
2024-04-15T12:42:38.331Z,97258.25
2024-04-15T12:47:43.773Z,97244.13
2024-04-15T12:52:48.992Z,97253.03
2024-04-15T12:57:56.861Z,97173.84
2024-04-15T13:03:02.760Z,97224.53
2024-04-15T13:08:35.340Z,97188.94
2024-04-15T13:13:43.201Z,97163.56
2024-04-15T13:18:48.403Z,97143.25
2024-04-15T13:23:56.344Z,97174.34
2024-04-15T13:29:04.282Z,97097.16
2024-04-15T13:34:09.737Z,97028.78
2024-04-15T13:39:15.471Z,97151.13
2024-04-15T13:44:23.443Z,97117.22
2024-04-15T13:49:34.078Z,97071.31
2024-04-15T13:54:39.226Z,97026.78
2024-04-15T13:59:47.139Z,97078.41
2024-04-15T14:04:53.472Z,96819.53
2024-04-15T14:10:02.070Z,96812.19
2024-04-15T14:15:11.809Z,96819.81
2024-04-15T14:20:17.061Z,96927.44
2024-04-15T14:25:22.405Z,97050.03
2024-04-15T14:30:30.245Z,97026.09
2024-04-15T14:35:35.559Z,96811.41
2024-04-15T14:40:41.031Z,97005.94
2024-04-15T14:45:53.032Z,97019.00
2024-04-15T14:50:59.888Z,96994.56
2024-04-15T14:56:05.123Z,96983.00
2024-04-15T15:01:13.216Z,96999.09
2024-04-15T15:06:18.528Z,96972.75
2024-04-15T15:11:23.775Z,96969.81
2024-04-15T15:16:31.834Z,96994.78
2024-04-15T15:21:37.039Z,96827.91
2024-04-15T15:26:42.361Z,96862.66
2024-04-15T15:31:50.176Z,96960.03
2024-04-15T15:36:57.136Z,96755.97
2024-04-15T15:42:02.310Z,96955.69
2024-04-15T15:47:12.771Z,96967.38
2024-04-15T15:52:18.170Z,96941.06
2024-04-15T15:57:23.401Z,96913.34
2024-04-15T16:02:41.029Z,96900.31
2024-04-15T16:07:49.558Z,96904.06
2024-04-15T16:12:54.770Z,96908.44
2024-04-15T16:18:06.226Z,96899.19
2024-04-15T16:23:11.407Z,96855.03
2024-04-15T16:28:16.645Z,96896.84
2024-04-15T16:33:24.528Z,96953.81
2024-04-15T16:38:29.770Z,96945.94
2024-04-15T16:43:34.914Z,96953.81
2024-04-15T16:48:42.815Z,96953.00
2024-04-15T16:53:47.955Z,96934.16
2024-04-15T16:58:54.338Z,96799.78
2024-04-15T17:04:02.222Z,96897.19
2024-04-15T17:09:07.501Z,96947.66
2024-04-15T17:14:13.273Z,96945.56
2024-04-15T17:19:21.159Z,96952.06
2024-04-15T17:24:26.356Z,96882.47
2024-04-15T17:29:31.612Z,96941.41
2024-04-15T17:34:39.425Z,96968.59
2024-04-15T17:39:45.486Z,96683.25
2024-04-15T17:44:52.559Z,96842.91
2024-04-15T17:50:00.592Z,96974.53
2024-04-15T17:55:05.768Z,96982.56
2024-04-15T18:00:13.285Z,96985.94
2024-04-15T18:05:21.132Z,96976.81
2024-04-15T18:10:26.471Z,96907.50
2024-04-15T18:15:31.745Z,96850.81
2024-04-15T18:20:39.630Z,96985.19
2024-04-15T18:25:44.893Z,96981.00
2024-04-15T18:30:51.418Z,96938.50
2024-04-15T18:35:59.645Z,97000.81
2024-04-15T18:41:04.945Z,96975.91
2024-04-15T18:46:10.712Z,97021.16
2024-04-15T18:51:18.575Z,97187.69
2024-04-15T18:56:24.733Z,97049.44
2024-04-15T19:01:29.975Z,97262.63
2024-04-15T19:06:38.146Z,97218.47
2024-04-15T19:11:43.328Z,97143.75
2024-04-15T19:16:48.568Z,97232.38
2024-04-15T19:21:56.391Z,97146.91
2024-04-15T19:27:04.660Z,97355.13
2024-04-15T19:32:10.152Z,97383.09
2024-04-15T19:37:18.201Z,97335.44
2024-04-15T19:42:23.424Z,97438.59
2024-04-15T19:47:29.529Z,97396.06
2024-04-15T19:52:37.680Z,97412.75
2024-04-15T19:57:45.265Z,97382.38
2024-04-15T20:02:50.548Z,97398.28
2024-04-15T20:08:05.329Z,97207.06
2024-04-15T20:13:14.473Z,97472.94
2024-04-15T20:18:35.226Z,97433.66
2024-04-15T20:23:43.101Z,97455.66
2024-04-15T20:28:48.286Z,97468.72
2024-04-15T20:33:53.760Z,97441.53
2024-04-15T20:39:02.529Z,97467.56
2024-04-15T20:44:08.076Z,97515.78
2024-04-15T20:49:13.277Z,97480.00
2024-04-15T20:54:21.297Z,97550.22
2024-04-15T20:59:26.591Z,97477.50
2024-04-15T21:04:31.797Z,97456.28
2024-04-15T21:09:39.852Z,97352.00
2024-04-15T21:14:44.977Z,97461.03
2024-04-15T21:19:50.085Z,97469.09
2024-04-15T21:24:58.113Z,97398.41
2024-04-15T21:30:03.346Z,97398.31
2024-04-15T21:35:09.173Z,97460.66
2024-04-15T21:40:17.023Z,97139.69
2024-04-15T21:45:22.240Z,97416.34
2024-04-15T21:50:27.384Z,97457.47
2024-04-15T21:55:35.330Z,97368.25
2024-04-15T22:00:40.648Z,97389.78
2024-04-15T22:05:45.863Z,97440.56
2024-04-15T22:10:53.776Z,97380.22
2024-04-15T22:15:58.933Z,97344.34
2024-04-15T22:21:04.187Z,97320.97
2024-04-15T22:26:12.078Z,97395.25
2024-04-15T22:31:17.256Z,97360.09
2024-04-15T22:36:22.382Z,97373.22
2024-04-15T22:41:30.162Z,97403.88
2024-04-15T22:46:35.500Z,97411.66
2024-04-15T22:51:40.644Z,97414.75
2024-04-15T22:56:48.606Z,97380.59
2024-04-15T23:01:53.823Z,97381.97
2024-04-15T23:06:59.218Z,97376.72
2024-04-15T23:12:07.847Z,97270.28
2024-04-15T23:17:13.090Z,97333.31
2024-04-15T23:22:18.306Z,97328.75
2024-04-15T23:27:26.166Z,97382.06
2024-04-15T23:32:31.402Z,97394.75
2024-04-15T23:37:37.671Z,97314.97
2024-04-15T23:42:46.275Z,97262.50
2024-04-15T23:48:10.582Z,97339.69
2024-04-15T23:53:34.235Z,97358.00
2024-04-15T23:59:01.030Z,97280.59
